sensor_id;sensor_type;location;lat;lon;timestamp;P1;durP1;ratioP1;P2;durP2;ratioP2
49948;SDS011;35840;45.982;8.890;2024-03-23T00:53:52;25.42;;;16.45;;
49948;SDS011;35840;45.982;8.890;2024-03-23T00:56:18;23.05;;;14.90;;
49948;SDS011;35840;45.982;8.890;2024-03-23T00:58:43;23.58;;;15.38;;
49948;SDS011;35840;45.982;8.890;2024-03-23T01:01:09;20.58;;;13.98;;
49948;SDS011;35840;45.982;8.890;2024-03-23T01:03:35;22.63;;;14.95;;
49948;SDS011;35840;45.982;8.890;2024-03-23T01:06:01;21.95;;;16.08;;
49948;SDS011;35840;45.982;8.890;2024-03-23T01:08:28;23.45;;;15.07;;
49948;SDS011;35840;45.982;8.890;2024-03-23T01:10:58;32.60;;;15.27;;
49948;SDS011;35840;45.982;8.890;2024-03-23T01:13:25;20.63;;;14.20;;
49948;SDS011;35840;45.982;8.890;2024-03-23T01:15:51;19.77;;;13.93;;
49948;SDS011;35840;45.982;8.890;2024-03-23T01:18:18;21.95;;;14.30;;
49948;SDS011;35840;45.982;8.890;2024-03-23T01:20:44;23.83;;;14.25;;
49948;SDS011;35840;45.982;8.890;2024-03-23T01:23:11;22.90;;;14.57;;
49948;SDS011;35840;45.982;8.890;2024-03-23T01:25:37;21.75;;;14.43;;
49948;SDS011;35840;45.982;8.890;2024-03-23T01:28:03;25.40;;;13.63;;
49948;SDS011;35840;45.982;8.890;2024-03-23T01:30:29;21.17;;;13.25;;
49948;SDS011;35840;45.982;8.890;2024-03-23T01:32:56;22.00;;;14.25;;
49948;SDS011;35840;45.982;8.890;2024-03-23T01:35:22;24.13;;;14.38;;
49948;SDS011;35840;45.982;8.890;2024-03-23T01:37:47;21.67;;;14.20;;
49948;SDS011;35840;45.982;8.890;2024-03-23T01:40:13;20.40;;;14.18;;
49948;SDS011;35840;45.982;8.890;2024-03-23T01:42:39;22.55;;;14.10;;
49948;SDS011;35840;45.982;8.890;2024-03-23T01:45:06;28.63;;;15.77;;
49948;SDS011;35840;45.982;8.890;2024-03-23T01:47:34;24.55;;;14.95;;
49948;SDS011;35840;45.982;8.890;2024-03-23T01:50:00;27.17;;;16.00;;
49948;SDS011;35840;45.982;8.890;2024-03-23T01:52:26;21.98;;;14.70;;
49948;SDS011;35840;45.982;8.890;2024-03-23T01:54:55;29.50;;;16.35;;
49948;SDS011;35840;45.982;8.890;2024-03-23T01:57:21;26.48;;;16.02;;
49948;SDS011;35840;45.982;8.890;2024-03-23T01:59:47;25.38;;;16.23;;
49948;SDS011;35840;45.982;8.890;2024-03-23T02:02:22;26.60;;;16.55;;
49948;SDS011;35840;45.982;8.890;2024-03-23T02:04:48;28.88;;;15.95;;
49948;SDS011;35840;45.982;8.890;2024-03-23T02:07:13;23.23;;;16.45;;
49948;SDS011;35840;45.982;8.890;2024-03-23T02:09:39;24.38;;;16.35;;
49948;SDS011;35840;45.982;8.890;2024-03-23T02:12:05;26.42;;;16.45;;
49948;SDS011;35840;45.982;8.890;2024-03-23T02:14:31;23.00;;;15.00;;
49948;SDS011;35840;45.982;8.890;2024-03-23T02:16:58;23.08;;;15.55;;
49948;SDS011;35840;45.982;8.890;2024-03-23T02:19:24;22.77;;;15.73;;
49948;SDS011;35840;45.982;8.890;2024-03-23T02:21:49;25.35;;;16.35;;
49948;SDS011;35840;45.982;8.890;2024-03-23T02:24:15;25.80;;;16.77;;
49948;SDS011;35840;45.982;8.890;2024-03-23T02:26:41;23.17;;;16.17;;
49948;SDS011;35840;45.982;8.890;2024-03-23T02:29:07;25.08;;;16.13;;
49948;SDS011;35840;45.982;8.890;2024-03-23T02:31:34;22.80;;;14.85;;
49948;SDS011;35840;45.982;8.890;2024-03-23T02:34:01;23.60;;;14.38;;
49948;SDS011;35840;45.982;8.890;2024-03-23T02:36:27;23.40;;;15.65;;
49948;SDS011;35840;45.982;8.890;2024-03-23T02:38:53;24.05;;;14.48;;
49948;SDS011;35840;45.982;8.890;2024-03-23T02:41:19;21.75;;;14.32;;
49948;SDS011;35840;45.982;8.890;2024-03-23T02:43:49;22.42;;;14.25;;
49948;SDS011;35840;45.982;8.890;2024-03-23T02:46:15;23.60;;;15.00;;
49948;SDS011;35840;45.982;8.890;2024-03-23T02:48:41;22.58;;;12.93;;
49948;SDS011;35840;45.982;8.890;2024-03-23T02:51:07;22.50;;;13.57;;
49948;SDS011;35840;45.982;8.890;2024-03-23T02:53:33;23.42;;;15.27;;
49948;SDS011;35840;45.982;8.890;2024-03-23T02:55:59;22.80;;;14.50;;
49948;SDS011;35840;45.982;8.890;2024-03-23T02:58:25;23.30;;;15.70;;
49948;SDS011;35840;45.982;8.890;2024-03-23T03:00:51;23.88;;;15.38;;
49948;SDS011;35840;45.982;8.890;2024-03-23T03:03:17;29.95;;;18.45;;
49948;SDS011;35840;45.982;8.890;2024-03-23T03:05:42;22.98;;;15.93;;
49948;SDS011;35840;45.982;8.890;2024-03-23T03:08:08;24.45;;;15.93;;
49948;SDS011;35840;45.982;8.890;2024-03-23T03:10:34;28.08;;;17.05;;
49948;SDS011;35840;45.982;8.890;2024-03-23T03:13:02;25.95;;;16.05;;
49948;SDS011;35840;45.982;8.890;2024-03-23T03:15:28;28.08;;;16.65;;
49948;SDS011;35840;45.982;8.890;2024-03-23T03:17:54;24.70;;;15.93;;
49948;SDS011;35840;45.982;8.890;2024-03-23T03:20:20;31.23;;;17.17;;
49948;SDS011;35840;45.982;8.890;2024-03-23T03:22:47;29.35;;;17.58;;
49948;SDS011;35840;45.982;8.890;2024-03-23T03:25:13;29.40;;;17.70;;
49948;SDS011;35840;45.982;8.890;2024-03-23T03:27:39;26.98;;;17.15;;
49948;SDS011;35840;45.982;8.890;2024-03-23T03:30:05;28.92;;;17.60;;
49948;SDS011;35840;45.982;8.890;2024-03-23T03:32:32;25.98;;;17.73;;
49948;SDS011;35840;45.982;8.890;2024-03-23T03:34:58;36.58;;;18.13;;
49948;SDS011;35840;45.982;8.890;2024-03-23T03:37:24;31.52;;;17.17;;
49948;SDS011;35840;45.982;8.890;2024-03-23T03:39:50;29.80;;;17.23;;
49948;SDS011;35840;45.982;8.890;2024-03-23T03:42:15;29.50;;;18.17;;
49948;SDS011;35840;45.982;8.890;2024-03-23T03:44:41;26.25;;;17.83;;
49948;SDS011;35840;45.982;8.890;2024-03-23T03:47:07;26.55;;;17.95;;
49948;SDS011;35840;45.982;8.890;2024-03-23T03:49:33;28.55;;;17.67;;
49948;SDS011;35840;45.982;8.890;2024-03-23T03:51:59;28.13;;;16.70;;
49948;SDS011;35840;45.982;8.890;2024-03-23T03:54:26;26.13;;;17.30;;
49948;SDS011;35840;45.982;8.890;2024-03-23T03:56:52;22.55;;;16.23;;
49948;SDS011;35840;45.982;8.890;2024-03-23T03:59:18;28.80;;;17.77;;
49948;SDS011;35840;45.982;8.890;2024-03-23T04:01:45;27.90;;;17.02;;
49948;SDS011;35840;45.982;8.890;2024-03-23T04:04:11;26.90;;;16.65;;
49948;SDS011;35840;45.982;8.890;2024-03-23T04:06:37;29.08;;;17.85;;
49948;SDS011;35840;45.982;8.890;2024-03-23T04:09:04;24.25;;;16.88;;
49948;SDS011;35840;45.982;8.890;2024-03-23T04:11:30;29.95;;;18.45;;
49948;SDS011;35840;45.982;8.890;2024-03-23T04:13:55;27.23;;;16.55;;
49948;SDS011;35840;45.982;8.890;2024-03-23T04:16:26;25.17;;;16.55;;
49948;SDS011;35840;45.982;8.890;2024-03-23T04:18:52;27.90;;;16.73;;
49948;SDS011;35840;45.982;8.890;2024-03-23T04:21:18;24.70;;;16.00;;
49948;SDS011;35840;45.982;8.890;2024-03-23T04:23:44;28.45;;;16.40;;
49948;SDS011;35840;45.982;8.890;2024-03-23T04:26:10;28.35;;;17.40;;
49948;SDS011;35840;45.982;8.890;2024-03-23T04:28:36;28.88;;;17.55;;
49948;SDS011;35840;45.982;8.890;2024-03-23T04:31:05;27.27;;;17.00;;
49948;SDS011;35840;45.982;8.890;2024-03-23T04:33:31;29.17;;;18.10;;
49948;SDS011;35840;45.982;8.890;2024-03-23T04:35:57;28.58;;;18.10;;
49948;SDS011;35840;45.982;8.890;2024-03-23T04:38:23;31.08;;;17.30;;
49948;SDS011;35840;45.982;8.890;2024-03-23T04:40:58;28.65;;;17.40;;
49948;SDS011;35840;45.982;8.890;2024-03-23T04:43:25;29.73;;;16.63;;
49948;SDS011;35840;45.982;8.890;2024-03-23T04:45:52;24.58;;;15.07;;
49948;SDS011;35840;45.982;8.890;2024-03-23T04:48:21;30.17;;;17.05;;
49948;SDS011;35840;45.982;8.890;2024-03-23T04:50:55;27.15;;;17.15;;
49948;SDS011;35840;45.982;8.890;2024-03-23T04:53:23;35.78;;;17.75;;
49948;SDS011;35840;45.982;8.890;2024-03-23T04:55:57;29.00;;;17.25;;
49948;SDS011;35840;45.982;8.890;2024-03-23T04:58:24;27.90;;;17.05;;
49948;SDS011;35840;45.982;8.890;2024-03-23T05:00:54;29.45;;;17.90;;
49948;SDS011;35840;45.982;8.890;2024-03-23T05:03:21;30.38;;;16.88;;
49948;SDS011;35840;45.982;8.890;2024-03-23T05:05:50;27.70;;;16.88;;
49948;SDS011;35840;45.982;8.890;2024-03-23T05:08:16;26.75;;;17.10;;
49948;SDS011;35840;45.982;8.890;2024-03-23T05:10:42;25.60;;;16.63;;
49948;SDS011;35840;45.982;8.890;2024-03-23T05:13:08;24.75;;;16.33;;
49948;SDS011;35840;45.982;8.890;2024-03-23T05:15:34;26.15;;;15.98;;
49948;SDS011;35840;45.982;8.890;2024-03-23T05:18:00;30.05;;;17.88;;
49948;SDS011;35840;45.982;8.890;2024-03-23T05:20:26;25.40;;;16.83;;
49948;SDS011;35840;45.982;8.890;2024-03-23T05:22:52;26.05;;;15.63;;
49948;SDS011;35840;45.982;8.890;2024-03-23T05:25:20;24.52;;;16.35;;
49948;SDS011;35840;45.982;8.890;2024-03-23T05:27:45;28.90;;;17.85;;
49948;SDS011;35840;45.982;8.890;2024-03-23T05:30:11;27.65;;;17.83;;
49948;SDS011;35840;45.982;8.890;2024-03-23T05:32:37;25.38;;;16.05;;
49948;SDS011;35840;45.982;8.890;2024-03-23T05:35:09;27.88;;;15.63;;
49948;SDS011;35840;45.982;8.890;2024-03-23T05:37:35;27.80;;;17.02;;
49948;SDS011;35840;45.982;8.890;2024-03-23T05:40:01;29.00;;;17.02;;
49948;SDS011;35840;45.982;8.890;2024-03-23T05:42:29;31.17;;;18.10;;
49948;SDS011;35840;45.982;8.890;2024-03-23T05:44:55;28.70;;;17.45;;
49948;SDS011;35840;45.982;8.890;2024-03-23T05:47:21;27.85;;;17.50;;
49948;SDS011;35840;45.982;8.890;2024-03-23T05:49:47;32.70;;;17.70;;
49948;SDS011;35840;45.982;8.890;2024-03-23T05:52:13;31.45;;;18.70;;
49948;SDS011;35840;45.982;8.890;2024-03-23T05:54:39;30.75;;;18.80;;
49948;SDS011;35840;45.982;8.890;2024-03-23T05:57:05;28.67;;;18.67;;
49948;SDS011;35840;45.982;8.890;2024-03-23T05:59:33;32.42;;;20.00;;
49948;SDS011;35840;45.982;8.890;2024-03-23T06:01:59;33.00;;;20.45;;
49948;SDS011;35840;45.982;8.890;2024-03-23T06:04:25;30.08;;;18.75;;
49948;SDS011;35840;45.982;8.890;2024-03-23T06:06:51;35.03;;;19.75;;
49948;SDS011;35840;45.982;8.890;2024-03-23T06:09:20;31.05;;;18.95;;
49948;SDS011;35840;45.982;8.890;2024-03-23T06:11:46;34.65;;;19.98;;
49948;SDS011;35840;45.982;8.890;2024-03-23T06:14:11;33.03;;;19.73;;
49948;SDS011;35840;45.982;8.890;2024-03-23T06:16:37;30.48;;;18.05;;
49948;SDS011;35840;45.982;8.890;2024-03-23T06:19:03;32.08;;;18.25;;
49948;SDS011;35840;45.982;8.890;2024-03-23T06:21:32;34.78;;;19.98;;
49948;SDS011;35840;45.982;8.890;2024-03-23T06:23:58;30.20;;;18.25;;
49948;SDS011;35840;45.982;8.890;2024-03-23T06:26:24;32.90;;;20.35;;
49948;SDS011;35840;45.982;8.890;2024-03-23T06:28:50;31.20;;;19.73;;
49948;SDS011;35840;45.982;8.890;2024-03-23T06:31:16;32.78;;;20.05;;
49948;SDS011;35840;45.982;8.890;2024-03-23T06:33:41;33.05;;;19.67;;
49948;SDS011;35840;45.982;8.890;2024-03-23T06:36:10;29.13;;;18.83;;
49948;SDS011;35840;45.982;8.890;2024-03-23T06:38:40;47.00;;;22.55;;
49948;SDS011;35840;45.982;8.890;2024-03-23T06:41:06;36.75;;;21.55;;
49948;SDS011;35840;45.982;8.890;2024-03-23T06:43:32;34.50;;;22.13;;
49948;SDS011;35840;45.982;8.890;2024-03-23T06:45:58;30.45;;;19.90;;
49948;SDS011;35840;45.982;8.890;2024-03-23T06:48:24;34.22;;;20.80;;
49948;SDS011;35840;45.982;8.890;2024-03-23T06:50:54;34.17;;;21.88;;
49948;SDS011;35840;45.982;8.890;2024-03-23T06:53:21;35.60;;;23.63;;
49948;SDS011;35840;45.982;8.890;2024-03-23T06:55:50;35.70;;;23.90;;
49948;SDS011;35840;45.982;8.890;2024-03-23T06:58:18;35.13;;;22.08;;
49948;SDS011;35840;45.982;8.890;2024-03-23T07:00:47;35.50;;;23.10;;
49948;SDS011;35840;45.982;8.890;2024-03-23T07:03:14;42.90;;;24.60;;
49948;SDS011;35840;45.982;8.890;2024-03-23T07:05:40;36.20;;;23.30;;
49948;SDS011;35840;45.982;8.890;2024-03-23T07:08:07;41.47;;;24.20;;
49948;SDS011;35840;45.982;8.890;2024-03-23T07:10:33;36.80;;;22.67;;
49948;SDS011;35840;45.982;8.890;2024-03-23T07:12:59;38.33;;;22.50;;
49948;SDS011;35840;45.982;8.890;2024-03-23T07:15:25;32.92;;;20.92;;
49948;SDS011;35840;45.982;8.890;2024-03-23T07:17:51;30.17;;;20.13;;
49948;SDS011;35840;45.982;8.890;2024-03-23T07:20:17;31.77;;;20.23;;
49948;SDS011;35840;45.982;8.890;2024-03-23T07:22:45;36.85;;;21.90;;
49948;SDS011;35840;45.982;8.890;2024-03-23T07:25:11;38.28;;;23.33;;
49948;SDS011;35840;45.982;8.890;2024-03-23T07:27:36;31.73;;;20.65;;
49948;SDS011;35840;45.982;8.890;2024-03-23T07:30:02;31.88;;;21.40;;
49948;SDS011;35840;45.982;8.890;2024-03-23T07:32:28;34.80;;;21.95;;
49948;SDS011;35840;45.982;8.890;2024-03-23T07:34:54;38.70;;;23.58;;
49948;SDS011;35840;45.982;8.890;2024-03-23T07:37:20;33.80;;;22.35;;
49948;SDS011;35840;45.982;8.890;2024-03-23T07:39:45;29.23;;;19.98;;
49948;SDS011;35840;45.982;8.890;2024-03-23T07:42:11;30.73;;;20.38;;
49948;SDS011;35840;45.982;8.890;2024-03-23T07:44:37;34.03;;;19.98;;
49948;SDS011;35840;45.982;8.890;2024-03-23T07:47:03;31.25;;;20.45;;
49948;SDS011;35840;45.982;8.890;2024-03-23T07:49:29;30.02;;;19.02;;
49948;SDS011;35840;45.982;8.890;2024-03-23T07:51:55;31.52;;;19.83;;
49948;SDS011;35840;45.982;8.890;2024-03-23T07:54:21;33.10;;;21.20;;
49948;SDS011;35840;45.982;8.890;2024-03-23T07:56:46;37.20;;;22.17;;
49948;SDS011;35840;45.982;8.890;2024-03-23T07:59:12;31.30;;;21.83;;
49948;SDS011;35840;45.982;8.890;2024-03-23T08:01:38;35.20;;;21.15;;
49948;SDS011;35840;45.982;8.890;2024-03-23T08:04:05;32.30;;;19.58;;
49948;SDS011;35840;45.982;8.890;2024-03-23T08:06:31;32.95;;;21.05;;
49948;SDS011;35840;45.982;8.890;2024-03-23T08:08:57;34.50;;;22.55;;
49948;SDS011;35840;45.982;8.890;2024-03-23T08:11:30;36.15;;;21.27;;
49948;SDS011;35840;45.982;8.890;2024-03-23T08:13:57;35.13;;;22.23;;
49948;SDS011;35840;45.982;8.890;2024-03-23T08:16:23;32.13;;;19.90;;
49948;SDS011;35840;45.982;8.890;2024-03-23T08:18:53;32.72;;;20.77;;
49948;SDS011;35840;45.982;8.890;2024-03-23T08:21:21;36.67;;;23.08;;
49948;SDS011;35840;45.982;8.890;2024-03-23T08:23:46;34.28;;;21.98;;
49948;SDS011;35840;45.982;8.890;2024-03-23T08:26:13;48.45;;;22.05;;
49948;SDS011;35840;45.982;8.890;2024-03-23T08:28:43;31.52;;;20.80;;
49948;SDS011;35840;45.982;8.890;2024-03-23T08:31:12;36.22;;;22.00;;
49948;SDS011;35840;45.982;8.890;2024-03-23T08:33:38;36.38;;;22.17;;
49948;SDS011;35840;45.982;8.890;2024-03-23T08:36:05;37.03;;;23.90;;
49948;SDS011;35840;45.982;8.890;2024-03-23T08:38:32;38.60;;;24.42;;
49948;SDS011;35840;45.982;8.890;2024-03-23T08:41:05;35.60;;;23.92;;
49948;SDS011;35840;45.982;8.890;2024-03-23T08:43:35;40.58;;;23.88;;
49948;SDS011;35840;45.982;8.890;2024-03-23T08:46:06;36.67;;;24.00;;
49948;SDS011;35840;45.982;8.890;2024-03-23T08:48:39;38.95;;;23.75;;
49948;SDS011;35840;45.982;8.890;2024-03-23T08:51:08;42.47;;;25.92;;
49948;SDS011;35840;45.982;8.890;2024-03-23T08:53:35;40.17;;;24.02;;
49948;SDS011;35840;45.982;8.890;2024-03-23T08:56:01;38.38;;;23.65;;
49948;SDS011;35840;45.982;8.890;2024-03-23T08:58:29;37.53;;;21.92;;
49948;SDS011;35840;45.982;8.890;2024-03-23T09:00:56;37.75;;;23.52;;
49948;SDS011;35840;45.982;8.890;2024-03-23T09:03:26;38.53;;;22.63;;
49948;SDS011;35840;45.982;8.890;2024-03-23T09:05:52;40.42;;;23.92;;
49948;SDS011;35840;45.982;8.890;2024-03-23T09:08:18;38.70;;;23.50;;
49948;SDS011;35840;45.982;8.890;2024-03-23T09:10:44;37.92;;;23.58;;
49948;SDS011;35840;45.982;8.890;2024-03-23T09:13:10;31.67;;;22.02;;
49948;SDS011;35840;45.982;8.890;2024-03-23T09:15:36;39.55;;;23.00;;
49948;SDS011;35840;45.982;8.890;2024-03-23T09:18:10;34.58;;;22.73;;
49948;SDS011;35840;45.982;8.890;2024-03-23T09:20:36;36.78;;;24.75;;
49948;SDS011;35840;45.982;8.890;2024-03-23T09:23:02;41.00;;;24.75;;
49948;SDS011;35840;45.982;8.890;2024-03-23T09:25:28;38.33;;;24.65;;
49948;SDS011;35840;45.982;8.890;2024-03-23T09:27:54;42.38;;;24.40;;
49948;SDS011;35840;45.982;8.890;2024-03-23T09:30:19;43.10;;;26.58;;
49948;SDS011;35840;45.982;8.890;2024-03-23T09:32:45;51.63;;;29.90;;
49948;SDS011;35840;45.982;8.890;2024-03-23T09:35:11;57.58;;;33.97;;
49948;SDS011;35840;45.982;8.890;2024-03-23T09:37:40;50.17;;;30.35;;
49948;SDS011;35840;45.982;8.890;2024-03-23T09:40:09;50.92;;;30.77;;
49948;SDS011;35840;45.982;8.890;2024-03-23T09:42:36;47.72;;;30.08;;
49948;SDS011;35840;45.982;8.890;2024-03-23T09:45:05;49.47;;;30.60;;
49948;SDS011;35840;45.982;8.890;2024-03-23T09:47:32;47.58;;;28.35;;
49948;SDS011;35840;45.982;8.890;2024-03-23T09:49:59;53.80;;;32.40;;
49948;SDS011;35840;45.982;8.890;2024-03-23T09:52:26;59.88;;;34.50;;
49948;SDS011;35840;45.982;8.890;2024-03-23T09:54:52;56.28;;;33.60;;
49948;SDS011;35840;45.982;8.890;2024-03-23T09:57:17;57.05;;;33.08;;
49948;SDS011;35840;45.982;8.890;2024-03-23T09:59:43;66.43;;;36.42;;
49948;SDS011;35840;45.982;8.890;2024-03-23T10:02:09;67.40;;;40.22;;
49948;SDS011;35840;45.982;8.890;2024-03-23T10:04:41;62.42;;;35.53;;
49948;SDS011;35840;45.982;8.890;2024-03-23T10:07:10;56.95;;;34.55;;
49948;SDS011;35840;45.982;8.890;2024-03-23T10:09:37;51.25;;;32.35;;
49948;SDS011;35840;45.982;8.890;2024-03-23T10:12:09;59.88;;;35.13;;
49948;SDS011;35840;45.982;8.890;2024-03-23T10:14:37;58.63;;;33.50;;
49948;SDS011;35840;45.982;8.890;2024-03-23T10:17:13;56.95;;;33.03;;
49948;SDS011;35840;45.982;8.890;2024-03-23T10:19:46;63.38;;;36.25;;
49948;SDS011;35840;45.982;8.890;2024-03-23T10:22:18;49.83;;;30.23;;
49948;SDS011;35840;45.982;8.890;2024-03-23T10:24:45;52.85;;;30.50;;
49948;SDS011;35840;45.982;8.890;2024-03-23T10:27:15;56.42;;;32.03;;
49948;SDS011;35840;45.982;8.890;2024-03-23T10:29:44;55.70;;;31.95;;
49948;SDS011;35840;45.982;8.890;2024-03-23T10:32:17;47.20;;;29.10;;
49948;SDS011;35840;45.982;8.890;2024-03-23T10:34:43;48.33;;;30.27;;
49948;SDS011;35840;45.982;8.890;2024-03-23T10:37:10;53.65;;;31.95;;
49948;SDS011;35840;45.982;8.890;2024-03-23T10:39:40;41.78;;;28.17;;
49948;SDS011;35840;45.982;8.890;2024-03-23T10:42:07;46.08;;;27.92;;
49948;SDS011;35840;45.982;8.890;2024-03-23T10:44:36;47.05;;;27.27;;
49948;SDS011;35840;45.982;8.890;2024-03-23T10:47:03;43.45;;;28.45;;
49948;SDS011;35840;45.982;8.890;2024-03-23T10:49:30;39.45;;;23.98;;
49948;SDS011;35840;45.982;8.890;2024-03-23T10:51:58;41.95;;;25.42;;
49948;SDS011;35840;45.982;8.890;2024-03-23T10:54:25;36.53;;;23.73;;
49948;SDS011;35840;45.982;8.890;2024-03-23T10:59:40;34.92;;;21.90;;
49948;SDS011;35840;45.982;8.890;2024-03-23T11:02:06;32.50;;;22.27;;
49948;SDS011;35840;45.982;8.890;2024-03-23T11:04:36;34.05;;;22.23;;
49948;SDS011;35840;45.982;8.890;2024-03-23T11:09:51;33.15;;;20.33;;
49948;SDS011;35840;45.982;8.890;2024-03-23T11:14:48;34.45;;;19.85;;
49948;SDS011;35840;45.982;8.890;2024-03-23T11:17:22;28.60;;;18.25;;
49948;SDS011;35840;45.982;8.890;2024-03-23T11:19:59;29.48;;;18.58;;
49948;SDS011;35840;45.982;8.890;2024-03-23T11:27:42;27.10;;;17.95;;
49948;SDS011;35840;45.982;8.890;2024-03-23T11:30:13;29.85;;;18.00;;
49948;SDS011;35840;45.982;8.890;2024-03-23T11:32:47;25.88;;;17.00;;
49948;SDS011;35840;45.982;8.890;2024-03-23T11:35:27;29.30;;;17.35;;
49948;SDS011;35840;45.982;8.890;2024-03-23T11:40:35;24.33;;;17.58;;
49948;SDS011;35840;45.982;8.890;2024-03-23T11:43:04;26.98;;;17.88;;
49948;SDS011;35840;45.982;8.890;2024-03-23T11:45:49;22.45;;;15.13;;
49948;SDS011;35840;45.982;8.890;2024-03-23T11:48:23;24.00;;;15.95;;
49948;SDS011;35840;45.982;8.890;2024-03-23T11:50:50;24.70;;;15.63;;
49948;SDS011;35840;45.982;8.890;2024-03-23T11:53:20;22.75;;;15.73;;
49948;SDS011;35840;45.982;8.890;2024-03-23T11:55:51;20.95;;;14.90;;
49948;SDS011;35840;45.982;8.890;2024-03-23T11:58:21;21.67;;;14.10;;
49948;SDS011;35840;45.982;8.890;2024-03-23T12:00:52;22.30;;;13.55;;
49948;SDS011;35840;45.982;8.890;2024-03-23T12:03:19;23.30;;;14.27;;
49948;SDS011;35840;45.982;8.890;2024-03-23T12:05:47;22.95;;;14.80;;
49948;SDS011;35840;45.982;8.890;2024-03-23T12:08:16;20.50;;;14.13;;
49948;SDS011;35840;45.982;8.890;2024-03-23T12:10:51;26.15;;;15.00;;
49948;SDS011;35840;45.982;8.890;2024-03-23T12:13:21;20.88;;;14.20;;
49948;SDS011;35840;45.982;8.890;2024-03-23T12:15:50;23.48;;;14.77;;
49948;SDS011;35840;45.982;8.890;2024-03-23T12:18:16;23.13;;;14.80;;
49948;SDS011;35840;45.982;8.890;2024-03-23T12:20:43;24.52;;;16.35;;
49948;SDS011;35840;45.982;8.890;2024-03-23T12:23:10;22.77;;;15.73;;
49948;SDS011;35840;45.982;8.890;2024-03-23T12:25:39;22.33;;;14.80;;
49948;SDS011;35840;45.982;8.890;2024-03-23T12:28:06;24.48;;;14.75;;
49948;SDS011;35840;45.982;8.890;2024-03-23T12:30:33;25.77;;;16.83;;
49948;SDS011;35840;45.982;8.890;2024-03-23T12:33:05;22.00;;;14.38;;
49948;SDS011;35840;45.982;8.890;2024-03-23T12:35:31;23.52;;;14.63;;
49948;SDS011;35840;45.982;8.890;2024-03-23T12:37:57;24.40;;;14.48;;
49948;SDS011;35840;45.982;8.890;2024-03-23T12:40:23;25.85;;;16.70;;
49948;SDS011;35840;45.982;8.890;2024-03-23T12:42:49;31.40;;;18.77;;
49948;SDS011;35840;45.982;8.890;2024-03-23T12:45:15;27.40;;;19.02;;
49948;SDS011;35840;45.982;8.890;2024-03-23T12:47:41;29.75;;;17.63;;
49948;SDS011;35840;45.982;8.890;2024-03-23T12:50:07;23.70;;;16.95;;
49948;SDS011;35840;45.982;8.890;2024-03-23T12:52:33;29.45;;;17.13;;
49948;SDS011;35840;45.982;8.890;2024-03-23T12:54:59;26.60;;;17.20;;
49948;SDS011;35840;45.982;8.890;2024-03-23T12:57:25;28.38;;;17.85;;
49948;SDS011;35840;45.982;8.890;2024-03-23T12:59:51;33.50;;;20.05;;
49948;SDS011;35840;45.982;8.890;2024-03-23T13:02:19;30.23;;;18.13;;
49948;SDS011;35840;45.982;8.890;2024-03-23T13:04:51;26.15;;;17.75;;
49948;SDS011;35840;45.982;8.890;2024-03-23T13:07:19;30.08;;;20.40;;
49948;SDS011;35840;45.982;8.890;2024-03-23T13:09:45;31.65;;;21.42;;
49948;SDS011;35840;45.982;8.890;2024-03-23T13:12:11;32.83;;;20.23;;
49948;SDS011;35840;45.982;8.890;2024-03-23T13:14:38;32.33;;;21.52;;
49948;SDS011;35840;45.982;8.890;2024-03-23T13:17:07;30.48;;;19.33;;
49948;SDS011;35840;45.982;8.890;2024-03-23T13:19:33;30.10;;;16.55;;
49948;SDS011;35840;45.982;8.890;2024-03-23T13:22:00;23.88;;;15.52;;
49948;SDS011;35840;45.982;8.890;2024-03-23T13:24:26;32.83;;;18.20;;
49948;SDS011;35840;45.982;8.890;2024-03-23T13:26:54;24.42;;;16.20;;
49948;SDS011;35840;45.982;8.890;2024-03-23T13:29:20;19.60;;;12.23;;
49948;SDS011;35840;45.982;8.890;2024-03-23T13:31:47;20.85;;;13.65;;
49948;SDS011;35840;45.982;8.890;2024-03-23T13:34:14;24.40;;;13.57;;
49948;SDS011;35840;45.982;8.890;2024-03-23T13:36:41;21.48;;;14.15;;
49948;SDS011;35840;45.982;8.890;2024-03-23T13:39:10;19.27;;;13.10;;
49948;SDS011;35840;45.982;8.890;2024-03-23T13:41:40;21.50;;;13.45;;
49948;SDS011;35840;45.982;8.890;2024-03-23T13:44:07;23.40;;;15.85;;
49948;SDS011;35840;45.982;8.890;2024-03-23T13:46:35;24.67;;;16.65;;
49948;SDS011;35840;45.982;8.890;2024-03-23T13:49:03;28.45;;;18.10;;
49948;SDS011;35840;45.982;8.890;2024-03-23T13:51:29;27.60;;;17.23;;
49948;SDS011;35840;45.982;8.890;2024-03-23T13:53:55;26.85;;;18.42;;
49948;SDS011;35840;45.982;8.890;2024-03-23T13:56:25;20.15;;;14.98;;
49948;SDS011;35840;45.982;8.890;2024-03-23T13:58:51;29.00;;;18.63;;
49948;SDS011;35840;45.982;8.890;2024-03-23T14:01:16;27.63;;;16.58;;
49948;SDS011;35840;45.982;8.890;2024-03-23T14:03:43;25.05;;;16.08;;
49948;SDS011;35840;45.982;8.890;2024-03-23T14:06:09;27.85;;;16.38;;
49948;SDS011;35840;45.982;8.890;2024-03-23T14:08:36;22.85;;;16.23;;
49948;SDS011;35840;45.982;8.890;2024-03-23T14:11:05;24.30;;;15.85;;
49948;SDS011;35840;45.982;8.890;2024-03-23T14:13:31;21.98;;;15.55;;
49948;SDS011;35840;45.982;8.890;2024-03-23T14:15:57;22.58;;;15.82;;
49948;SDS011;35840;45.982;8.890;2024-03-23T14:18:24;22.27;;;14.77;;
49948;SDS011;35840;45.982;8.890;2024-03-23T14:20:51;20.08;;;13.02;;
49948;SDS011;35840;45.982;8.890;2024-03-23T14:23:18;17.75;;;12.02;;
49948;SDS011;35840;45.982;8.890;2024-03-23T14:25:44;8.02;;;5.20;;
49948;SDS011;35840;45.982;8.890;2024-03-23T14:28:10;6.97;;;5.00;;
49948;SDS011;35840;45.982;8.890;2024-03-23T14:30:40;9.57;;;5.35;;
49948;SDS011;35840;45.982;8.890;2024-03-23T14:33:07;5.70;;;4.35;;
49948;SDS011;35840;45.982;8.890;2024-03-23T14:35:33;10.27;;;5.82;;
49948;SDS011;35840;45.982;8.890;2024-03-23T14:37:59;8.68;;;5.80;;
49948;SDS011;35840;45.982;8.890;2024-03-23T14:40:25;11.65;;;7.03;;
49948;SDS011;35840;45.982;8.890;2024-03-23T14:42:54;12.85;;;6.50;;
49948;SDS011;35840;45.982;8.890;2024-03-23T14:45:21;12.07;;;6.53;;
49948;SDS011;35840;45.982;8.890;2024-03-23T14:47:47;10.77;;;6.30;;
49948;SDS011;35840;45.982;8.890;2024-03-23T14:50:13;7.97;;;5.18;;
49948;SDS011;35840;45.982;8.890;2024-03-23T14:52:42;7.55;;;5.53;;
49948;SDS011;35840;45.982;8.890;2024-03-23T14:55:09;5.40;;;4.10;;
49948;SDS011;35840;45.982;8.890;2024-03-23T14:57:35;7.25;;;4.07;;
49948;SDS011;35840;45.982;8.890;2024-03-23T15:00:01;6.90;;;4.57;;
49948;SDS011;35840;45.982;8.890;2024-03-23T15:02:30;5.75;;;3.88;;
49948;SDS011;35840;45.982;8.890;2024-03-23T15:04:58;5.70;;;3.33;;
49948;SDS011;35840;45.982;8.890;2024-03-23T15:07:24;5.60;;;3.60;;
49948;SDS011;35840;45.982;8.890;2024-03-23T15:09:50;4.55;;;3.60;;
49948;SDS011;35840;45.982;8.890;2024-03-23T15:12:15;3.78;;;3.00;;
49948;SDS011;35840;45.982;8.890;2024-03-23T15:14:41;3.28;;;2.17;;
49948;SDS011;35840;45.982;8.890;2024-03-23T15:17:07;1.90;;;1.60;;
49948;SDS011;35840;45.982;8.890;2024-03-23T15:19:34;5.85;;;3.38;;
49948;SDS011;35840;45.982;8.890;2024-03-23T15:22:00;4.72;;;2.97;;
49948;SDS011;35840;45.982;8.890;2024-03-23T15:24:26;3.45;;;1.38;;
49948;SDS011;35840;45.982;8.890;2024-03-23T15:26:52;5.82;;;1.60;;
49948;SDS011;35840;45.982;8.890;2024-03-23T15:29:17;0.77;;;0.70;;
49948;SDS011;35840;45.982;8.890;2024-03-23T15:31:43;1.83;;;0.70;;